createdAt,value
2019-04-14T00:10:01.156Z,90.00
2019-04-14T00:25:02.399Z,90.00
2019-04-14T02:10:01.994Z,90.00
2019-04-14T03:20:28.034Z,315.00
2019-04-14T03:25:21.128Z,315.00
2019-04-14T03:36:06.282Z,315.00
2019-04-14T03:45:35.758Z,315.00
2019-04-14T03:55:15.991Z,315.00
2019-04-14T04:00:01.066Z,315.00
2019-04-14T04:05:02.230Z,315.00
2019-04-14T04:10:01.054Z,315.00
2019-04-14T04:15:01.965Z,315.00
2019-04-14T04:20:02.461Z,315.00
2019-04-14T04:25:01.118Z,315.00
2019-04-14T04:30:01.734Z,315.00
2019-04-14T04:35:02.198Z,315.00
2019-04-14T04:40:01.069Z,315.00
2019-04-14T04:45:01.776Z,315.00
2019-04-14T04:50:02.295Z,315.00
2019-04-14T04:55:02.492Z,315.00
2019-04-14T05:00:02.582Z,315.00
2019-04-14T05:05:01.327Z,315.00
2019-04-14T05:10:02.708Z,315.00
2019-04-14T05:15:01.365Z,315.00
2019-04-14T05:20:01.113Z,315.00
2019-04-14T05:25:01.612Z,315.00
2019-04-14T05:30:01.123Z,315.00
2019-04-14T05:35:01.056Z,83.77
2019-04-14T05:40:01.931Z,90.00
2019-04-14T05:45:02.431Z,90.00
2019-04-14T05:50:03.076Z,90.00
2019-04-14T05:55:02.474Z,90.00
2019-04-14T06:00:01.806Z,90.00
2019-04-14T06:05:01.544Z,90.00
2019-04-14T06:10:01.105Z,90.00
2019-04-14T06:15:01.521Z,90.00
2019-04-14T06:20:01.058Z,90.00
2019-04-14T06:25:01.099Z,90.00
2019-04-14T06:30:01.076Z,90.00
2019-04-14T06:35:01.435Z,90.00
2019-04-14T06:40:01.058Z,90.00
2019-04-14T06:45:01.063Z,90.00
2019-04-14T06:50:01.052Z,90.00
2019-04-14T06:55:01.091Z,90.00
2019-04-14T07:00:01.049Z,90.00
2019-04-14T07:05:01.529Z,90.00
2019-04-14T07:10:01.116Z,90.00
2019-04-14T07:15:01.272Z,90.00
2019-04-14T07:20:02.232Z,90.00
2019-04-14T07:25:01.095Z,90.00
2019-04-14T07:30:01.093Z,90.66
2019-04-14T07:35:01.091Z,225.00
2019-04-14T07:40:01.556Z,225.00
2019-04-14T07:45:01.293Z,225.00
2019-04-14T07:50:13.708Z,225.00
2019-04-14T07:55:01.064Z,225.00
2019-04-14T08:00:01.076Z,225.00
2019-04-14T08:05:01.084Z,225.00
2019-04-14T08:10:01.082Z,210.24
2019-04-14T08:15:01.383Z,44.57
2019-04-14T08:20:01.407Z,315.00
2019-04-14T08:25:01.546Z,315.00
2019-04-14T08:30:02.282Z,315.00
2019-04-14T08:35:01.075Z,315.00
2019-04-14T08:40:01.470Z,273.46
2019-04-14T08:45:01.370Z,225.00
2019-04-14T10:25:01.462Z,315.00
2019-04-14T10:30:01.088Z,315.00
2019-04-14T11:30:01.079Z,282.62
2019-04-14T11:35:01.441Z,209.76
